San Antonio, Texas
Traffic Map
Current Weather Conditions
San Antonio, Texas
Broken Clouds
Broken Clouds
78°
Feels Like: 80°
Wind Chill: 78° Ceiling: 1900
Heat Index: 80° Visibility: 10mi
Dew Point: 71° Wind: 12mph
Humidity: 79% Direction: 180° (S)
Pressure: 29.99in Gusts: 0mph
Raw Report DataKSAT 151051Z 18010KT 10SM BKN019 BKN250 26/22 A2999 RMK AO2 SLP136 T02560217
Traffic Incident Summary
Active as of:
Severity:
Category:
InformationThere was an issue retrieving the traffic information for this location. Please try a different location or try again shortly.
Advertisements